sensor_id;sensor_type;location;lat;lon;timestamp;P1;durP1;ratioP1;P2;durP2;ratioP2
28007;SDS011;15333;50.010;20.020;2022-11-15T00:00:55;578.00;;;70.32;;
28007;SDS011;15333;50.010;20.020;2022-11-15T00:04:15;230.40;;;47.88;;
28007;SDS011;15333;50.010;20.020;2022-11-15T00:07:34;439.05;;;60.42;;
28007;SDS011;15333;50.010;20.020;2022-11-15T00:10:55;357.83;;;53.13;;
28007;SDS011;15333;50.010;20.020;2022-11-15T00:14:18;465.92;;;55.45;;
28007;SDS011;15333;50.010;20.020;2022-11-15T00:17:38;214.20;;;43.33;;
28007;SDS011;15333;50.010;20.020;2022-11-15T00:21:02;505.45;;;57.85;;
28007;SDS011;15333;50.010;20.020;2022-11-15T00:24:24;803.97;;;77.07;;
28007;SDS011;15333;50.010;20.020;2022-11-15T00:27:43;630.40;;;64.18;;
28007;SDS011;15333;50.010;20.020;2022-11-15T00:31:05;321.20;;;48.03;;
28007;SDS011;15333;50.010;20.020;2022-11-15T00:34:27;271.92;;;40.25;;
28007;SDS011;15333;50.010;20.020;2022-11-15T00:37:47;390.58;;;49.20;;
28007;SDS011;15333;50.010;20.020;2022-11-15T00:41:06;254.77;;;44.88;;
28007;SDS011;15333;50.010;20.020;2022-11-15T00:44:26;338.00;;;48.43;;
28007;SDS011;15333;50.010;20.020;2022-11-15T00:47:46;311.77;;;42.80;;
28007;SDS011;15333;50.010;20.020;2022-11-15T00:51:06;215.50;;;38.07;;
28007;SDS011;15333;50.010;20.020;2022-11-15T00:54:25;196.18;;;39.50;;
28007;SDS011;15333;50.010;20.020;2022-11-15T00:57:45;256.70;;;41.88;;
28007;SDS011;15333;50.010;20.020;2022-11-15T01:01:06;175.25;;;38.83;;
28007;SDS011;15333;50.010;20.020;2022-11-15T01:04:27;170.30;;;36.03;;
28007;SDS011;15333;50.010;20.020;2022-11-15T01:07:46;294.60;;;40.10;;
28007;SDS011;15333;50.010;20.020;2022-11-15T01:11:07;175.82;;;36.90;;
28007;SDS011;15333;50.010;20.020;2022-11-15T01:14:28;155.02;;;35.58;;
28007;SDS011;15333;50.010;20.020;2022-11-15T01:17:47;202.63;;;35.60;;
28007;SDS011;15333;50.010;20.020;2022-11-15T01:21:07;219.35;;;38.42;;
28007;SDS011;15333;50.010;20.020;2022-11-15T01:24:28;196.63;;;37.08;;
28007;SDS011;15333;50.010;20.020;2022-11-15T01:27:48;539.55;;;55.83;;
28007;SDS011;15333;50.010;20.020;2022-11-15T01:31:15;386.98;;;45.13;;
28007;SDS011;15333;50.010;20.020;2022-11-15T01:34:35;696.05;;;62.97;;
28007;SDS011;15333;50.010;20.020;2022-11-15T01:37:55;301.63;;;39.08;;
28007;SDS011;15333;50.010;20.020;2022-11-15T01:41:15;364.23;;;47.85;;
28007;SDS011;15333;50.010;20.020;2022-11-15T01:48:06;719.60;;;70.40;;
28007;SDS011;15333;50.010;20.020;2022-11-15T01:51:29;569.95;;;57.53;;
28007;SDS011;15333;50.010;20.020;2022-11-15T01:55:34;377.75;;;45.63;;
28007;SDS011;15333;50.010;20.020;2022-11-15T01:58:38;500.17;;;56.45;;
28007;SDS011;15333;50.010;20.020;2022-11-15T02:01:59;305.08;;;41.38;;
28007;SDS011;15333;50.010;20.020;2022-11-15T02:05:19;384.90;;;44.30;;
28007;SDS011;15333;50.010;20.020;2022-11-15T02:08:38;246.10;;;41.55;;
28007;SDS011;15333;50.010;20.020;2022-11-15T02:11:57;521.95;;;57.78;;
28007;SDS011;15333;50.010;20.020;2022-11-15T02:15:18;219.38;;;38.45;;
28007;SDS011;15333;50.010;20.020;2022-11-15T02:18:40;232.90;;;40.07;;
28007;SDS011;15333;50.010;20.020;2022-11-15T02:33:10;212.52;;;35.78;;
28007;SDS011;15333;50.010;20.020;2022-11-15T02:36:54;464.15;;;47.13;;
28007;SDS011;15333;50.010;20.020;2022-11-15T02:54:14;933.05;;;80.28;;
28007;SDS011;15333;50.010;20.020;2022-11-15T02:57:43;284.08;;;37.40;;
28007;SDS011;15333;50.010;20.020;2022-11-15T03:01:27;441.55;;;48.38;;
28007;SDS011;15333;50.010;20.020;2022-11-15T03:08:18;176.38;;;31.33;;
28007;SDS011;15333;50.010;20.020;2022-11-15T03:11:41;947.13;;;90.10;;
28007;SDS011;15333;50.010;20.020;2022-11-15T03:15:09;165.60;;;32.22;;
28007;SDS011;15333;50.010;20.020;2022-11-15T03:18:45;362.33;;;45.55;;
28007;SDS011;15333;50.010;20.020;2022-11-15T03:22:12;142.15;;;32.47;;
28007;SDS011;15333;50.010;20.020;2022-11-15T03:25:37;361.67;;;44.13;;
28007;SDS011;15333;50.010;20.020;2022-11-15T03:29:06;312.25;;;42.72;;
28007;SDS011;15333;50.010;20.020;2022-11-15T03:32:34;195.25;;;35.20;;
28007;SDS011;15333;50.010;20.020;2022-11-15T03:35:57;106.65;;;31.73;;
28007;SDS011;15333;50.010;20.020;2022-11-15T03:39:18;345.52;;;45.67;;
28007;SDS011;15333;50.010;20.020;2022-11-15T03:46:17;169.20;;;36.22;;
28007;SDS011;15333;50.010;20.020;2022-11-15T03:49:44;264.85;;;44.67;;
28007;SDS011;15333;50.010;20.020;2022-11-15T03:53:08;310.17;;;46.70;;
28007;SDS011;15333;50.010;20.020;2022-11-15T03:56:28;160.73;;;37.73;;
28007;SDS011;15333;50.010;20.020;2022-11-15T03:59:48;309.30;;;44.40;;
28007;SDS011;15333;50.010;20.020;2022-11-15T04:03:07;374.77;;;50.70;;
28007;SDS011;15333;50.010;20.020;2022-11-15T04:06:27;336.60;;;51.67;;
28007;SDS011;15333;50.010;20.020;2022-11-15T04:09:46;469.63;;;60.65;;
28007;SDS011;15333;50.010;20.020;2022-11-15T04:13:21;138.63;;;34.83;;
28007;SDS011;15333;50.010;20.020;2022-11-15T04:16:40;225.68;;;42.70;;
28007;SDS011;15333;50.010;20.020;2022-11-15T04:20:00;696.63;;;74.85;;
28007;SDS011;15333;50.010;20.020;2022-11-15T04:23:38;296.42;;;47.70;;
28007;SDS011;15333;50.010;20.020;2022-11-15T04:27:16;147.77;;;38.40;;
28007;SDS011;15333;50.010;20.020;2022-11-15T04:30:36;278.52;;;46.60;;
28007;SDS011;15333;50.010;20.020;2022-11-15T04:33:56;473.33;;;56.92;;
28007;SDS011;15333;50.010;20.020;2022-11-15T04:37:15;534.55;;;63.47;;
28007;SDS011;15333;50.010;20.020;2022-11-15T04:40:35;397.20;;;48.13;;
28007;SDS011;15333;50.010;20.020;2022-11-15T04:43:55;226.23;;;43.45;;
28007;SDS011;15333;50.010;20.020;2022-11-15T04:47:15;323.63;;;46.67;;
28007;SDS011;15333;50.010;20.020;2022-11-15T04:50:35;697.38;;;70.25;;
28007;SDS011;15333;50.010;20.020;2022-11-15T04:53:54;271.25;;;40.90;;
28007;SDS011;15333;50.010;20.020;2022-11-15T04:57:14;217.80;;;40.50;;
28007;SDS011;15333;50.010;20.020;2022-11-15T05:00:34;345.87;;;51.73;;
28007;SDS011;15333;50.010;20.020;2022-11-15T05:03:54;340.10;;;46.28;;
28007;SDS011;15333;50.010;20.020;2022-11-15T05:07:32;427.23;;;49.78;;
28007;SDS011;15333;50.010;20.020;2022-11-15T05:10:52;398.92;;;47.38;;
28007;SDS011;15333;50.010;20.020;2022-11-15T05:14:12;195.82;;;38.08;;
28007;SDS011;15333;50.010;20.020;2022-11-15T05:17:31;168.40;;;34.47;;
28007;SDS011;15333;50.010;20.020;2022-11-15T05:20:50;236.95;;;35.50;;
28007;SDS011;15333;50.010;20.020;2022-11-15T05:24:10;435.77;;;48.40;;
28007;SDS011;15333;50.010;20.020;2022-11-15T05:27:30;583.93;;;56.50;;
28007;SDS011;15333;50.010;20.020;2022-11-15T05:30:49;485.25;;;52.88;;
28007;SDS011;15333;50.010;20.020;2022-11-15T05:34:09;471.13;;;50.00;;
28007;SDS011;15333;50.010;20.020;2022-11-15T05:37:28;535.03;;;55.33;;
28007;SDS011;15333;50.010;20.020;2022-11-15T05:40:48;494.52;;;61.22;;
28007;SDS011;15333;50.010;20.020;2022-11-15T05:44:07;342.88;;;47.92;;
28007;SDS011;15333;50.010;20.020;2022-11-15T05:47:29;504.58;;;61.92;;
28007;SDS011;15333;50.010;20.020;2022-11-15T05:50:49;551.63;;;69.47;;
28007;SDS011;15333;50.010;20.020;2022-11-15T05:57:39;268.93;;;42.77;;
28007;SDS011;15333;50.010;20.020;2022-11-15T06:00:59;454.67;;;55.83;;
28007;SDS011;15333;50.010;20.020;2022-11-15T06:04:19;175.02;;;35.60;;
28007;SDS011;15333;50.010;20.020;2022-11-15T06:07:38;337.00;;;47.55;;
28007;SDS011;15333;50.010;20.020;2022-11-15T06:11:02;434.33;;;56.45;;
28007;SDS011;15333;50.010;20.020;2022-11-15T06:14:25;557.72;;;65.70;;
28007;SDS011;15333;50.010;20.020;2022-11-15T06:17:44;295.25;;;47.42;;
28007;SDS011;15333;50.010;20.020;2022-11-15T06:21:04;350.73;;;51.50;;
28007;SDS011;15333;50.010;20.020;2022-11-15T06:24:24;225.00;;;44.58;;
28007;SDS011;15333;50.010;20.020;2022-11-15T06:27:44;220.77;;;43.80;;
28007;SDS011;15333;50.010;20.020;2022-11-15T06:31:10;656.70;;;71.82;;
28007;SDS011;15333;50.010;20.020;2022-11-15T06:34:30;379.13;;;52.92;;
28007;SDS011;15333;50.010;20.020;2022-11-15T06:37:50;317.13;;;46.65;;
28007;SDS011;15333;50.010;20.020;2022-11-15T06:41:10;549.60;;;66.60;;
28007;SDS011;15333;50.010;20.020;2022-11-15T06:44:30;318.55;;;47.20;;
28007;SDS011;15333;50.010;20.020;2022-11-15T06:47:50;235.88;;;43.03;;
28007;SDS011;15333;50.010;20.020;2022-11-15T06:51:09;151.38;;;38.47;;
28007;SDS011;15333;50.010;20.020;2022-11-15T06:54:29;206.52;;;37.55;;
28007;SDS011;15333;50.010;20.020;2022-11-15T06:57:49;216.57;;;43.25;;
28007;SDS011;15333;50.010;20.020;2022-11-15T07:01:11;163.02;;;38.17;;
28007;SDS011;15333;50.010;20.020;2022-11-15T07:07:51;236.90;;;43.47;;
28007;SDS011;15333;50.010;20.020;2022-11-15T07:11:12;177.23;;;33.05;;
28007;SDS011;15333;50.010;20.020;2022-11-15T07:14:31;173.63;;;36.63;;
28007;SDS011;15333;50.010;20.020;2022-11-15T07:17:51;147.38;;;33.50;;
28007;SDS011;15333;50.010;20.020;2022-11-15T07:21:11;111.57;;;33.78;;
28007;SDS011;15333;50.010;20.020;2022-11-15T07:24:31;133.15;;;31.40;;
28007;SDS011;15333;50.010;20.020;2022-11-15T07:27:54;215.52;;;38.35;;
28007;SDS011;15333;50.010;20.020;2022-11-15T07:31:14;307.70;;;43.08;;
28007;SDS011;15333;50.010;20.020;2022-11-15T07:34:34;169.05;;;35.33;;
28007;SDS011;15333;50.010;20.020;2022-11-15T07:37:55;154.40;;;34.03;;
28007;SDS011;15333;50.010;20.020;2022-11-15T07:41:19;381.35;;;44.50;;
28007;SDS011;15333;50.010;20.020;2022-11-15T07:44:38;142.35;;;31.10;;
28007;SDS011;15333;50.010;20.020;2022-11-15T07:47:58;125.30;;;30.00;;
28007;SDS011;15333;50.010;20.020;2022-11-15T07:51:17;107.60;;;29.73;;
28007;SDS011;15333;50.010;20.020;2022-11-15T07:54:37;169.47;;;32.03;;
28007;SDS011;15333;50.010;20.020;2022-11-15T07:58:04;119.93;;;31.13;;
28007;SDS011;15333;50.010;20.020;2022-11-15T08:01:25;117.45;;;27.50;;
28007;SDS011;15333;50.010;20.020;2022-11-15T08:04:44;178.07;;;34.67;;
28007;SDS011;15333;50.010;20.020;2022-11-15T08:08:04;113.20;;;27.38;;
28007;SDS011;15333;50.010;20.020;2022-11-15T08:11:24;136.05;;;30.75;;
28007;SDS011;15333;50.010;20.020;2022-11-15T08:14:43;187.55;;;34.13;;
28007;SDS011;15333;50.010;20.020;2022-11-15T08:18:04;288.90;;;35.85;;
28007;SDS011;15333;50.010;20.020;2022-11-15T08:21:37;132.05;;;29.35;;
28007;SDS011;15333;50.010;20.020;2022-11-15T08:24:56;101.70;;;28.73;;
28007;SDS011;15333;50.010;20.020;2022-11-15T08:28:16;173.65;;;30.73;;
28007;SDS011;15333;50.010;20.020;2022-11-15T08:31:36;166.20;;;35.43;;
28007;SDS011;15333;50.010;20.020;2022-11-15T08:34:56;141.80;;;29.30;;
28007;SDS011;15333;50.010;20.020;2022-11-15T08:38:15;104.63;;;27.85;;
28007;SDS011;15333;50.010;20.020;2022-11-15T08:41:37;102.05;;;28.23;;
28007;SDS011;15333;50.010;20.020;2022-11-15T08:44:56;145.52;;;31.95;;
28007;SDS011;15333;50.010;20.020;2022-11-15T08:48:16;156.20;;;30.88;;
28007;SDS011;15333;50.010;20.020;2022-11-15T08:51:35;81.63;;;28.67;;
28007;SDS011;15333;50.010;20.020;2022-11-15T08:54:55;72.13;;;27.40;;
28007;SDS011;15333;50.010;20.020;2022-11-15T08:58:14;68.93;;;28.15;;
28007;SDS011;15333;50.010;20.020;2022-11-15T09:01:34;84.03;;;26.98;;
28007;SDS011;15333;50.010;20.020;2022-11-15T09:04:53;114.68;;;29.17;;
28007;SDS011;15333;50.010;20.020;2022-11-15T09:08:12;74.20;;;24.95;;
28007;SDS011;15333;50.010;20.020;2022-11-15T09:11:32;62.15;;;24.85;;
28007;SDS011;15333;50.010;20.020;2022-11-15T09:14:51;57.35;;;25.88;;
28007;SDS011;15333;50.010;20.020;2022-11-15T09:18:10;109.18;;;27.52;;
28007;SDS011;15333;50.010;20.020;2022-11-15T09:21:30;63.10;;;26.00;;
28007;SDS011;15333;50.010;20.020;2022-11-15T09:24:50;52.80;;;24.73;;
28007;SDS011;15333;50.010;20.020;2022-11-15T09:28:09;87.07;;;28.42;;
28007;SDS011;15333;50.010;20.020;2022-11-15T09:31:29;56.33;;;27.58;;
28007;SDS011;15333;50.010;20.020;2022-11-15T09:34:49;57.92;;;27.77;;
28007;SDS011;15333;50.010;20.020;2022-11-15T09:38:09;53.72;;;28.38;;
28007;SDS011;15333;50.010;20.020;2022-11-15T09:48:54;52.33;;;27.25;;
28007;SDS011;15333;50.010;20.020;2022-11-15T09:52:03;49.13;;;24.75;;
28007;SDS011;15333;50.010;20.020;2022-11-15T09:55:04;45.83;;;24.80;;
28007;SDS011;15333;50.010;20.020;2022-11-15T09:58:21;51.28;;;26.13;;
28007;SDS011;15333;50.010;20.020;2022-11-15T10:01:36;51.28;;;26.98;;
28007;SDS011;15333;50.010;20.020;2022-11-15T10:04:38;46.15;;;25.60;;
28007;SDS011;15333;50.010;20.020;2022-11-15T10:07:50;51.90;;;26.40;;
28007;SDS011;15333;50.010;20.020;2022-11-15T10:11:11;55.63;;;27.45;;
28007;SDS011;15333;50.010;20.020;2022-11-15T10:14:18;55.17;;;27.73;;
28007;SDS011;15333;50.010;20.020;2022-11-15T10:17:24;61.50;;;30.23;;
28007;SDS011;15333;50.010;20.020;2022-11-15T10:24:19;64.18;;;30.65;;
28007;SDS011;15333;50.010;20.020;2022-11-15T10:27:24;61.80;;;30.15;;
28007;SDS011;15333;50.010;20.020;2022-11-15T10:31:26;59.38;;;30.27;;
28007;SDS011;15333;50.010;20.020;2022-11-15T10:34:16;60.92;;;31.95;;
28007;SDS011;15333;50.010;20.020;2022-11-15T10:37:30;63.28;;;31.40;;
28007;SDS011;15333;50.010;20.020;2022-11-15T10:40:32;62.83;;;30.65;;
28007;SDS011;15333;50.010;20.020;2022-11-15T10:43:34;66.07;;;29.08;;
28007;SDS011;15333;50.010;20.020;2022-11-15T10:46:35;55.97;;;30.60;;
28007;SDS011;15333;50.010;20.020;2022-11-15T10:49:37;57.85;;;30.33;;
28007;SDS011;15333;50.010;20.020;2022-11-15T10:52:54;59.95;;;30.40;;
28007;SDS011;15333;50.010;20.020;2022-11-15T10:55:56;54.45;;;31.05;;
28007;SDS011;15333;50.010;20.020;2022-11-15T10:58:59;55.95;;;29.40;;
28007;SDS011;15333;50.010;20.020;2022-11-15T11:02:00;57.58;;;30.05;;
28007;SDS011;15333;50.010;20.020;2022-11-15T11:05:03;58.28;;;31.60;;
28007;SDS011;15333;50.010;20.020;2022-11-15T11:11:12;62.88;;;35.95;;
28007;SDS011;15333;50.010;20.020;2022-11-15T11:14:16;49.13;;;27.90;;
28007;SDS011;15333;50.010;20.020;2022-11-15T11:17:23;49.90;;;27.75;;
28007;SDS011;15333;50.010;20.020;2022-11-15T11:20:51;49.72;;;26.60;;
28007;SDS011;15333;50.010;20.020;2022-11-15T11:24:08;47.10;;;26.08;;
28007;SDS011;15333;50.010;20.020;2022-11-15T11:47:21;52.42;;;32.00;;
28007;SDS011;15333;50.010;20.020;2022-11-15T11:50:31;54.28;;;31.65;;
28007;SDS011;15333;50.010;20.020;2022-11-15T11:54:11;52.88;;;31.02;;
28007;SDS011;15333;50.010;20.020;2022-11-15T12:00:49;63.67;;;32.63;;
28007;SDS011;15333;50.010;20.020;2022-11-15T12:07:01;67.90;;;36.55;;
28007;SDS011;15333;50.010;20.020;2022-11-15T12:13:29;66.78;;;37.67;;
28007;SDS011;15333;50.010;20.020;2022-11-15T12:16:35;70.22;;;37.22;;
28007;SDS011;15333;50.010;20.020;2022-11-15T12:19:41;65.50;;;36.65;;
28007;SDS011;15333;50.010;20.020;2022-11-15T12:22:44;76.03;;;39.58;;
28007;SDS011;15333;50.010;20.020;2022-11-15T12:25:51;78.55;;;41.13;;
28007;SDS011;15333;50.010;20.020;2022-11-15T12:28:58;78.05;;;43.28;;
28007;SDS011;15333;50.010;20.020;2022-11-15T12:32:03;79.13;;;42.97;;
28007;SDS011;15333;50.010;20.020;2022-11-15T12:35:06;81.43;;;43.08;;
28007;SDS011;15333;50.010;20.020;2022-11-15T12:44:57;88.22;;;46.00;;
28007;SDS011;15333;50.010;20.020;2022-11-15T12:51:23;88.78;;;46.15;;
28007;SDS011;15333;50.010;20.020;2022-11-15T12:54:49;88.78;;;46.90;;
28007;SDS011;15333;50.010;20.020;2022-11-15T12:57:50;83.10;;;45.28;;
28007;SDS011;15333;50.010;20.020;2022-11-15T13:00:52;82.28;;;44.35;;
28007;SDS011;15333;50.010;20.020;2022-11-15T13:04:12;81.63;;;42.63;;
28007;SDS011;15333;50.010;20.020;2022-11-15T13:10:40;88.88;;;44.10;;
28007;SDS011;15333;50.010;20.020;2022-11-15T13:13:42;78.32;;;41.63;;
28007;SDS011;15333;50.010;20.020;2022-11-15T13:16:45;76.20;;;41.63;;
28007;SDS011;15333;50.010;20.020;2022-11-15T13:23:13;78.35;;;42.53;;
28007;SDS011;15333;50.010;20.020;2022-11-15T13:26:17;72.78;;;40.28;;
28007;SDS011;15333;50.010;20.020;2022-11-15T13:29:18;72.95;;;40.33;;
28007;SDS011;15333;50.010;20.020;2022-11-15T13:32:20;74.65;;;42.00;;
28007;SDS011;15333;50.010;20.020;2022-11-15T13:35:23;76.25;;;41.05;;
28007;SDS011;15333;50.010;20.020;2022-11-15T13:38:29;71.47;;;39.30;;
28007;SDS011;15333;50.010;20.020;2022-11-15T13:41:33;69.03;;;39.47;;
28007;SDS011;15333;50.010;20.020;2022-11-15T13:44:35;65.50;;;37.13;;
28007;SDS011;15333;50.010;20.020;2022-11-15T13:47:36;81.93;;;42.10;;
28007;SDS011;15333;50.010;20.020;2022-11-15T13:50:37;75.32;;;38.97;;
28007;SDS011;15333;50.010;20.020;2022-11-15T13:53:40;70.63;;;39.15;;
28007;SDS011;15333;50.010;20.020;2022-11-15T13:56:48;73.63;;;39.15;;
28007;SDS011;15333;50.010;20.020;2022-11-15T13:59:57;66.38;;;35.97;;
28007;SDS011;15333;50.010;20.020;2022-11-15T14:06:19;72.00;;;38.40;;
28007;SDS011;15333;50.010;20.020;2022-11-15T14:09:33;65.25;;;35.17;;
28007;SDS011;15333;50.010;20.020;2022-11-15T14:12:49;66.95;;;38.75;;
28007;SDS011;15333;50.010;20.020;2022-11-15T14:15:51;63.65;;;37.15;;
28007;SDS011;15333;50.010;20.020;2022-11-15T14:18:52;68.88;;;35.58;;
28007;SDS011;15333;50.010;20.020;2022-11-15T14:25:27;69.47;;;38.20;;
28007;SDS011;15333;50.010;20.020;2022-11-15T14:28:33;63.42;;;37.13;;
28007;SDS011;15333;50.010;20.020;2022-11-15T14:31:38;59.45;;;35.70;;
28007;SDS011;15333;50.010;20.020;2022-11-15T14:34:41;71.47;;;38.60;;
28007;SDS011;15333;50.010;20.020;2022-11-15T14:37:43;68.40;;;37.42;;
28007;SDS011;15333;50.010;20.020;2022-11-15T14:40:44;64.82;;;37.70;;
28007;SDS011;15333;50.010;20.020;2022-11-15T14:43:45;69.82;;;37.30;;
28007;SDS011;15333;50.010;20.020;2022-11-15T14:46:46;74.53;;;40.42;;
28007;SDS011;15333;50.010;20.020;2022-11-15T14:49:48;70.07;;;38.47;;
28007;SDS011;15333;50.010;20.020;2022-11-15T14:52:49;77.25;;;40.03;;
28007;SDS011;15333;50.010;20.020;2022-11-15T14:55:49;84.82;;;39.90;;
28007;SDS011;15333;50.010;20.020;2022-11-15T14:58:51;71.68;;;38.33;;
28007;SDS011;15333;50.010;20.020;2022-11-15T15:01:51;73.75;;;39.10;;
28007;SDS011;15333;50.010;20.020;2022-11-15T15:04:52;84.80;;;39.88;;
28007;SDS011;15333;50.010;20.020;2022-11-15T15:07:53;82.03;;;39.75;;
28007;SDS011;15333;50.010;20.020;2022-11-15T15:10:54;80.95;;;41.10;;
28007;SDS011;15333;50.010;20.020;2022-11-15T15:13:55;78.47;;;40.30;;
28007;SDS011;15333;50.010;20.020;2022-11-15T15:16:57;79.30;;;40.58;;
28007;SDS011;15333;50.010;20.020;2022-11-15T15:19:58;83.70;;;42.08;;
28007;SDS011;15333;50.010;20.020;2022-11-15T15:22:59;82.85;;;40.30;;
28007;SDS011;15333;50.010;20.020;2022-11-15T15:26:00;78.78;;;43.78;;
28007;SDS011;15333;50.010;20.020;2022-11-15T15:29:01;90.43;;;44.13;;
28007;SDS011;15333;50.010;20.020;2022-11-15T15:32:01;93.45;;;44.63;;
28007;SDS011;15333;50.010;20.020;2022-11-15T15:35:03;89.18;;;44.83;;
28007;SDS011;15333;50.010;20.020;2022-11-15T15:38:04;91.82;;;45.72;;
28007;SDS011;15333;50.010;20.020;2022-11-15T15:41:08;97.22;;;47.38;;
28007;SDS011;15333;50.010;20.020;2022-11-15T15:44:10;104.28;;;46.95;;
28007;SDS011;15333;50.010;20.020;2022-11-15T15:47:21;101.85;;;48.05;;
28007;SDS011;15333;50.010;20.020;2022-11-15T15:50:23;106.88;;;50.17;;
28007;SDS011;15333;50.010;20.020;2022-11-15T15:53:29;97.05;;;47.88;;
28007;SDS011;15333;50.010;20.020;2022-11-15T15:56:31;90.45;;;47.28;;
28007;SDS011;15333;50.010;20.020;2022-11-15T15:59:32;90.40;;;45.25;;
28007;SDS011;15333;50.010;20.020;2022-11-15T16:02:33;90.70;;;45.95;;
28007;SDS011;15333;50.010;20.020;2022-11-15T16:05:34;85.25;;;43.65;;
28007;SDS011;15333;50.010;20.020;2022-11-15T16:08:34;83.88;;;43.70;;
28007;SDS011;15333;50.010;20.020;2022-11-15T16:11:35;79.75;;;42.33;;
28007;SDS011;15333;50.010;20.020;2022-11-15T16:14:36;90.88;;;44.97;;
28007;SDS011;15333;50.010;20.020;2022-11-15T16:17:38;87.88;;;46.38;;
28007;SDS011;15333;50.010;20.020;2022-11-15T16:20:43;90.03;;;46.17;;
28007;SDS011;15333;50.010;20.020;2022-11-15T16:23:46;101.72;;;49.92;;
28007;SDS011;15333;50.010;20.020;2022-11-15T16:26:47;96.90;;;49.90;;
28007;SDS011;15333;50.010;20.020;2022-11-15T16:29:50;110.20;;;51.92;;
28007;SDS011;15333;50.010;20.020;2022-11-15T16:32:51;111.15;;;51.67;;
28007;SDS011;15333;50.010;20.020;2022-11-15T16:35:52;117.15;;;54.33;;
28007;SDS011;15333;50.010;20.020;2022-11-15T16:38:52;117.43;;;56.55;;
28007;SDS011;15333;50.010;20.020;2022-11-15T16:41:53;121.22;;;55.78;;
28007;SDS011;15333;50.010;20.020;2022-11-15T16:44:54;116.60;;;56.78;;
28007;SDS011;15333;50.010;20.020;2022-11-15T16:47:55;128.13;;;58.47;;
28007;SDS011;15333;50.010;20.020;2022-11-15T16:50:57;120.68;;;56.88;;
28007;SDS011;15333;50.010;20.020;2022-11-15T16:53:58;123.25;;;57.25;;
28007;SDS011;15333;50.010;20.020;2022-11-15T16:56:59;113.72;;;54.58;;
28007;SDS011;15333;50.010;20.020;2022-11-15T17:00:00;121.07;;;54.47;;
28007;SDS011;15333;50.010;20.020;2022-11-15T17:03:00;115.57;;;49.05;;
28007;SDS011;15333;50.010;20.020;2022-11-15T17:06:03;106.05;;;51.22;;
28007;SDS011;15333;50.010;20.020;2022-11-15T17:09:03;110.72;;;51.22;;
28007;SDS011;15333;50.010;20.020;2022-11-15T17:12:04;118.32;;;51.90;;
28007;SDS011;15333;50.010;20.020;2022-11-15T17:15:05;104.85;;;49.83;;
28007;SDS011;15333;50.010;20.020;2022-11-15T17:18:09;109.78;;;50.22;;
28007;SDS011;15333;50.010;20.020;2022-11-15T17:21:12;108.22;;;51.47;;
28007;SDS011;15333;50.010;20.020;2022-11-15T17:24:15;116.57;;;50.25;;
28007;SDS011;15333;50.010;20.020;2022-11-15T17:27:16;111.97;;;51.40;;
28007;SDS011;15333;50.010;20.020;2022-11-15T17:30:17;112.90;;;50.55;;
28007;SDS011;15333;50.010;20.020;2022-11-15T17:33:19;122.32;;;52.92;;
28007;SDS011;15333;50.010;20.020;2022-11-15T17:36:20;114.68;;;52.58;;
28007;SDS011;15333;50.010;20.020;2022-11-15T17:39:22;120.28;;;53.50;;
28007;SDS011;15333;50.010;20.020;2022-11-15T17:42:24;121.68;;;54.25;;
28007;SDS011;15333;50.010;20.020;2022-11-15T17:45:25;138.93;;;61.97;;
28007;SDS011;15333;50.010;20.020;2022-11-15T17:48:26;123.57;;;58.75;;
28007;SDS011;15333;50.010;20.020;2022-11-15T17:51:26;125.00;;;59.00;;
28007;SDS011;15333;50.010;20.020;2022-11-15T17:54:28;138.23;;;62.97;;
28007;SDS011;15333;50.010;20.020;2022-11-15T17:57:28;139.82;;;63.70;;
28007;SDS011;15333;50.010;20.020;2022-11-15T18:00:29;135.18;;;60.35;;
28007;SDS011;15333;50.010;20.020;2022-11-15T18:03:32;125.35;;;61.20;;
28007;SDS011;15333;50.010;20.020;2022-11-15T18:06:35;123.75;;;60.63;;
28007;SDS011;15333;50.010;20.020;2022-11-15T18:09:36;138.00;;;65.03;;
28007;SDS011;15333;50.010;20.020;2022-11-15T18:12:38;114.30;;;58.40;;
28007;SDS011;15333;50.010;20.020;2022-11-15T18:15:38;104.55;;;53.28;;
28007;SDS011;15333;50.010;20.020;2022-11-15T18:18:39;87.75;;;46.95;;
28007;SDS011;15333;50.010;20.020;2022-11-15T18:21:42;94.43;;;46.53;;
28007;SDS011;15333;50.010;20.020;2022-11-15T18:24:55;94.88;;;48.25;;
28007;SDS011;15333;50.010;20.020;2022-11-15T18:27:56;98.68;;;51.28;;
28007;SDS011;15333;50.010;20.020;2022-11-15T18:30:57;93.07;;;49.17;;
28007;SDS011;15333;50.010;20.020;2022-11-15T18:33:59;102.15;;;50.83;;
28007;SDS011;15333;50.010;20.020;2022-11-15T18:37:00;88.80;;;48.33;;
28007;SDS011;15333;50.010;20.020;2022-11-15T18:40:02;96.13;;;49.50;;
28007;SDS011;15333;50.010;20.020;2022-11-15T18:43:04;107.15;;;50.83;;
28007;SDS011;15333;50.010;20.020;2022-11-15T18:46:09;105.47;;;54.28;;
28007;SDS011;15333;50.010;20.020;2022-11-15T18:49:12;111.13;;;54.00;;
28007;SDS011;15333;50.010;20.020;2022-11-15T18:52:15;107.97;;;52.47;;
28007;SDS011;15333;50.010;20.020;2022-11-15T18:55:16;104.90;;;54.55;;
28007;SDS011;15333;50.010;20.020;2022-11-15T18:58:17;109.90;;;53.78;;
28007;SDS011;15333;50.010;20.020;2022-11-15T19:01:19;108.07;;;53.33;;
28007;SDS011;15333;50.010;20.020;2022-11-15T19:04:27;106.03;;;51.92;;
28007;SDS011;15333;50.010;20.020;2022-11-15T19:07:28;109.35;;;55.10;;
28007;SDS011;15333;50.010;20.020;2022-11-15T19:10:28;99.78;;;52.97;;
28007;SDS011;15333;50.010;20.020;2022-11-15T19:13:29;104.72;;;53.28;;
28007;SDS011;15333;50.010;20.020;2022-11-15T19:16:31;103.82;;;52.58;;
28007;SDS011;15333;50.010;20.020;2022-11-15T19:19:34;105.53;;;51.38;;
28007;SDS011;15333;50.010;20.020;2022-11-15T19:22:35;100.82;;;50.97;;
28007;SDS011;15333;50.010;20.020;2022-11-15T19:25:36;100.45;;;50.58;;
28007;SDS011;15333;50.010;20.020;2022-11-15T19:28:37;108.75;;;53.63;;
28007;SDS011;15333;50.010;20.020;2022-11-15T19:31:38;104.15;;;53.28;;
28007;SDS011;15333;50.010;20.020;2022-11-15T19:34:39;174.02;;;98.88;;
28007;SDS011;15333;50.010;20.020;2022-11-15T19:37:41;119.15;;;59.78;;
28007;SDS011;15333;50.010;20.020;2022-11-15T19:40:42;141.13;;;72.32;;
28007;SDS011;15333;50.010;20.020;2022-11-15T19:43:43;125.20;;;63.45;;
28007;SDS011;15333;50.010;20.020;2022-11-15T19:46:47;108.22;;;57.50;;
28007;SDS011;15333;50.010;20.020;2022-11-15T19:49:48;108.38;;;57.78;;
28007;SDS011;15333;50.010;20.020;2022-11-15T19:52:48;102.75;;;53.33;;
28007;SDS011;15333;50.010;20.020;2022-11-15T19:55:53;99.40;;;54.08;;
28007;SDS011;15333;50.010;20.020;2022-11-15T19:58:58;111.20;;;55.88;;
28007;SDS011;15333;50.010;20.020;2022-11-15T20:01:59;113.25;;;56.92;;
28007;SDS011;15333;50.010;20.020;2022-11-15T20:05:00;105.30;;;55.85;;
28007;SDS011;15333;50.010;20.020;2022-11-15T20:08:01;107.78;;;58.45;;